Time,TemperatureF,DewpointF,PressureIn,WindDirection,WindDirectionDegrees,WindSpeedMPH,WindSpeedGustMPH,Humidity,HourlyPrecipIn,Conditions,Clouds,dailyrainin,SoftwareType,DateUTC
2013-03-02 00:00:00,15.3,12.4,30.43,ENE,69,0.0,0.0,88,0.00,,,0.00,VWS V14.00,2013-03-02 06:00:00,
2013-03-02 00:05:00,14.9,12.2,30.42,ENE,69,0.0,0.0,89,0.00,,,0.00,VWS V14.00,2013-03-02 06:05:00,
2013-03-02 00:10:00,14.6,11.9,30.42,East,90,1.0,2.0,89,0.00,,,0.00,VWS V14.00,2013-03-02 06:10:00,
2013-03-02 00:15:00,14.6,11.9,30.42,East,95,1.0,2.0,89,0.00,,,0.00,VWS V14.00,2013-03-02 06:15:00,
2013-03-02 00:20:00,14.8,12.1,30.42,East,95,1.0,2.0,89,0.00,,,0.00,VWS V14.00,2013-03-02 06:20:00,
2013-03-02 00:24:00,14.9,12.5,30.42,East,95,2.0,2.0,90,0.00,,,0.00,VWS V14.00,2013-03-02 06:24:00,
2013-03-02 00:29:00,15.1,12.4,30.42,East,98,2.0,3.0,89,0.00,,,0.00,VWS V14.00,2013-03-02 06:29:00,
2013-03-02 00:34:00,14.8,12.1,30.42,East,101,1.0,2.0,89,0.00,,,0.00,VWS V14.00,2013-03-02 06:34:00,
2013-03-02 00:39:00,14.9,12.5,30.42,East,94,1.0,2.0,90,0.00,,,0.00,VWS V14.00,2013-03-02 06:39:00,
2013-03-02 00:44:00,15.2,12.8,30.42,East,94,1.0,2.0,90,0.00,,,0.00,VWS V14.00,2013-03-02 06:44:00,
2013-03-02 00:49:00,15.1,12.7,30.42,East,96,1.0,2.0,90,0.00,,,0.00,VWS V14.00,2013-03-02 06:49:00,
2013-03-02 00:54:00,14.9,12.5,30.42,ESE,105,2.0,3.0,90,0.00,,,0.00,VWS V14.00,2013-03-02 06:54:00,
2013-03-02 00:59:00,14.8,12.4,30.42,ESE,107,2.0,3.0,90,0.00,,,0.00,VWS V14.00,2013-03-02 06:59:00,
2013-03-02 01:04:00,14.6,12.2,30.42,ESE,111,3.0,3.0,90,0.00,,,0.00,VWS V14.00,2013-03-02 07:04:00,
2013-03-02 01:09:00,14.4,12.0,30.42,ESE,113,3.0,3.0,90,0.00,,,0.00,VWS V14.00,2013-03-02 07:09:00,
2013-03-02 01:14:00,14.6,12.2,30.42,ESE,115,2.0,3.0,90,0.00,,,0.00,VWS V14.00,2013-03-02 07:14:00,
2013-03-02 01:19:00,14.8,12.4,30.42,ESE,113,3.0,3.0,90,0.00,,,0.00,VWS V14.00,2013-03-02 07:19:00,
2013-03-02 01:24:00,14.8,12.4,30.42,ESE,117,2.0,4.0,90,0.00,,,0.00,VWS V14.00,2013-03-02 07:24:00,
2013-03-02 01:29:00,14.8,12.4,30.43,ESE,113,2.0,4.0,90,0.00,,,0.00,VWS V14.00,2013-03-02 07:29:00,
2013-03-02 01:34:00,14.3,11.9,30.43,ESE,115,2.0,3.0,90,0.00,,,0.00,VWS V14.00,2013-03-02 07:34:00,
2013-03-02 01:39:00,14.1,11.7,30.43,ESE,120,3.0,3.0,90,0.00,,,0.00,VWS V14.00,2013-03-02 07:39:00,
2013-03-02 01:44:00,13.8,11.2,30.43,SE,125,4.0,4.0,89,0.00,,,0.00,VWS V14.00,2013-03-02 07:44:00,
2013-03-02 01:49:00,13.8,11.4,30.43,ESE,120,5.0,5.0,90,0.00,,,0.00,VWS V14.00,2013-03-02 07:49:00,
2013-03-02 01:54:00,13.8,11.4,30.43,ESE,122,5.0,6.0,90,0.00,,,0.00,VWS V14.00,2013-03-02 07:54:00,
2013-03-02 01:59:00,13.4,11.0,30.43,ESE,122,5.0,6.0,90,0.00,,,0.00,VWS V14.00,2013-03-02 07:59:00,
2013-03-02 02:04:00,13.3,10.9,30.42,ESE,119,6.0,7.0,90,0.00,,,0.00,VWS V14.00,2013-03-02 08:04:00,
2013-03-02 02:09:00,13.3,10.9,30.42,ESE,118,5.0,7.0,90,0.00,,,0.00,VWS V14.00,2013-03-02 08:09:00,
2013-03-02 02:14:00,13.4,11.0,30.42,ESE,118,6.0,7.0,90,0.00,,,0.00,VWS V14.00,2013-03-02 08:14:00,
2013-03-02 02:19:00,13.5,11.1,30.42,SE,128,6.0,7.0,90,0.00,,,0.00,VWS V14.00,2013-03-02 08:19:00,
2013-03-02 02:24:00,13.9,11.5,30.42,SE,136,4.0,7.0,90,0.00,,,0.00,VWS V14.00,2013-03-02 08:24:00,
2013-03-02 02:29:00,14.2,11.6,30.42,SSE,150,2.0,7.0,89,0.00,,,0.00,VWS V14.00,2013-03-02 08:29:00,
2013-03-02 02:34:00,15.0,12.4,30.41,SSE,151,3.0,3.0,89,0.00,,,0.00,VWS V14.00,2013-03-02 08:34:00,
2013-03-02 02:39:00,15.4,12.2,30.40,SE,140,5.0,6.0,87,0.00,,,0.00,VWS V14.00,2013-03-02 08:39:00,
2013-03-02 02:44:00,15.2,11.5,30.40,SSE,148,2.0,6.0,85,0.00,,,0.00,VWS V14.00,2013-03-02 08:44:00,
2013-03-02 02:49:00,15.1,11.1,30.41,SSE,155,0.0,6.0,84,0.00,,,0.00,VWS V14.00,2013-03-02 08:49:00,
2013-03-02 02:54:00,15.3,11.1,30.41,SSE,154,0.0,6.0,83,0.00,,,0.00,VWS V14.00,2013-03-02 08:54:00,
2013-03-02 02:59:00,15.6,11.4,30.40,SSE,150,1.0,6.0,83,0.00,,,0.00,VWS V14.00,2013-03-02 08:59:00,
2013-03-02 03:04:00,15.5,11.0,30.40,SSE,159,0.0,0.0,82,0.00,,,0.00,VWS V14.00,2013-03-02 09:04:00,
2013-03-02 03:09:00,15.5,10.7,30.40,East,90,0.0,1.0,81,0.00,,,0.00,VWS V14.00,2013-03-02 09:09:00,
2013-03-02 03:14:00,15.9,10.8,30.40,East,91,0.0,1.0,80,0.00,,,0.00,VWS V14.00,2013-03-02 09:14:00,
2013-03-02 03:19:00,16.1,11.0,30.40,NE,52,0.0,1.0,80,0.00,,,0.00,VWS V14.00,2013-03-02 09:19:00,
2013-03-02 03:24:00,16.1,10.8,30.40,ENE,78,0.0,1.0,79,0.00,,,0.00,VWS V14.00,2013-03-02 09:24:00,
2013-03-02 03:29:00,15.9,10.6,30.40,NNE,32,0.0,1.0,79,0.00,,,0.00,VWS V14.00,2013-03-02 09:29:00,
2013-03-02 03:34:00,15.7,10.1,30.40,North,5,0.0,0.0,78,0.00,,,0.00,VWS V14.00,2013-03-02 09:34:00,
2013-03-02 03:39:00,15.4,9.8,30.39,East,82,1.0,2.0,78,0.00,,,0.00,VWS V14.00,2013-03-02 09:39:00,
2013-03-02 03:44:00,14.6,9.3,30.40,SSE,148,1.0,2.0,79,0.00,,,0.00,VWS V14.00,2013-03-02 09:44:00,
2013-03-02 03:49:00,14.4,9.4,30.40,SE,146,1.0,2.0,80,0.00,,,0.00,VWS V14.00,2013-03-02 09:49:00,
2013-03-02 03:54:00,14.3,9.3,30.40,SE,141,3.0,3.0,80,0.00,,,0.00,VWS V14.00,2013-03-02 09:54:00,
2013-03-02 03:59:00,14.4,9.1,30.39,SE,136,5.0,6.0,79,0.00,,,0.00,VWS V14.00,2013-03-02 09:59:00,
2013-03-02 04:04:00,14.1,8.8,30.40,SE,134,5.0,6.0,79,0.00,,,0.00,VWS V14.00,2013-03-02 10:04:00,
2013-03-02 04:09:00,14.0,8.7,30.40,SE,133,5.0,6.0,79,0.00,,,0.00,VWS V14.00,2013-03-02 10:09:00,
2013-03-02 04:14:00,13.8,8.5,30.40,SE,137,4.0,6.0,79,0.00,,,0.00,VWS V14.00,2013-03-02 10:14:00,
2013-03-02 04:19:00,13.0,7.7,30.40,SE,138,4.0,6.0,79,0.00,,,0.00,VWS V14.00,2013-03-02 10:19:00,
2013-03-02 04:24:00,12.5,7.0,30.40,SE,145,3.0,6.0,78,0.00,,,0.00,VWS V14.00,2013-03-02 10:24:00,
2013-03-02 04:29:00,12.2,6.4,30.40,SSE,150,3.0,6.0,77,0.00,,,0.00,VWS V14.00,2013-03-02 10:29:00,
2013-03-02 04:34:00,12.1,6.0,30.40,SSE,152,1.0,2.0,76,0.00,,,0.00,VWS V14.00,2013-03-02 10:34:00,
2013-03-02 04:39:00,12.0,5.6,30.40,SSE,152,1.0,2.0,75,0.00,,,0.00,VWS V14.00,2013-03-02 10:39:00,
2013-03-02 04:44:00,11.9,5.2,30.40,SE,144,3.0,3.0,74,0.00,,,0.00,VWS V14.00,2013-03-02 10:44:00,
2013-03-02 04:49:00,12.0,4.7,30.40,SE,146,2.0,3.0,72,0.00,,,0.00,VWS V14.00,2013-03-02 10:49:00,
2013-03-02 04:54:00,12.0,4.7,30.40,SE,145,3.0,4.0,72,0.00,,,0.00,VWS V14.00,2013-03-02 10:54:00,
2013-03-02 04:59:00,11.6,4.0,30.40,SE,146,3.0,4.0,71,0.00,,,0.00,VWS V14.00,2013-03-02 10:59:00,
2013-03-02 05:04:00,11.4,3.8,30.41,SE,145,2.0,3.0,71,0.00,,,0.00,VWS V14.00,2013-03-02 11:04:00,
2013-03-02 05:09:00,11.2,3.3,30.41,SE,146,2.0,4.0,70,0.00,,,0.00,VWS V14.00,2013-03-02 11:09:00,
2013-03-02 05:14:00,11.1,2.9,30.41,SSE,150,2.0,4.0,69,0.00,,,0.00,VWS V14.00,2013-03-02 11:14:00,
2013-03-02 05:19:00,10.9,2.7,30.40,SSE,148,4.0,4.0,69,0.00,,,0.00,VWS V14.00,2013-03-02 11:19:00,
2013-03-02 05:24:00,11.0,2.5,30.41,SE,144,3.0,5.0,68,0.00,,,0.00,VWS V14.00,2013-03-02 11:24:00,
2013-03-02 05:29:00,11.0,2.5,30.41,SSE,148,2.0,5.0,68,0.00,,,0.00,VWS V14.00,2013-03-02 11:29:00,
2013-03-02 05:34:00,10.8,2.3,30.41,SSE,148,2.0,4.0,68,0.00,,,0.00,VWS V14.00,2013-03-02 11:34:00,
2013-03-02 05:39:00,10.8,2.3,30.41,SE,141,4.0,5.0,68,0.00,,,0.00,VWS V14.00,2013-03-02 11:39:00,
2013-03-02 05:44:00,10.9,2.4,30.41,SSE,147,3.0,5.0,68,0.00,,,0.00,VWS V14.00,2013-03-02 11:44:00,
2013-03-02 05:49:00,10.6,2.1,30.41,SE,138,6.0,6.0,68,0.00,,,0.00,VWS V14.00,2013-03-02 11:49:00,
2013-03-02 05:54:00,10.1,2.0,30.41,SE,141,5.0,6.0,69,0.00,,,0.00,VWS V14.00,2013-03-02 11:54:00,
2013-03-02 05:59:00,10.4,2.6,30.41,SE,137,5.0,6.0,70,0.00,,,0.00,VWS V14.00,2013-03-02 11:59:00,
2013-03-02 06:04:00,10.3,2.5,30.41,SE,136,7.0,7.0,70,0.00,,,0.00,VWS V14.00,2013-03-02 12:04:00,
2013-03-02 06:09:00,10.0,2.2,30.41,SE,130,7.0,8.0,70,0.00,,,0.00,VWS V14.00,2013-03-02 12:09:00,
2013-03-02 06:14:00,9.7,2.2,30.41,SE,134,6.0,8.0,71,0.00,,,0.00,VWS V14.00,2013-03-02 12:14:00,
2013-03-02 06:19:00,9.2,1.7,30.41,SE,140,5.0,8.0,71,0.00,,,0.00,VWS V14.00,2013-03-02 12:19:00,
2013-03-02 06:24:00,9.1,2.2,30.41,SE,132,7.0,8.0,73,0.00,,,0.00,VWS V14.00,2013-03-02 12:24:00,
2013-03-02 06:29:00,9.3,2.4,30.42,SE,129,5.0,8.0,73,0.00,,,0.00,VWS V14.00,2013-03-02 12:29:00,
2013-03-02 06:34:00,9.4,2.8,30.41,SE,128,6.0,7.0,74,0.00,,,0.00,VWS V14.00,2013-03-02 12:34:00,
2013-03-02 06:39:00,9.4,2.8,30.41,SE,133,6.0,7.0,74,0.00,,,0.00,VWS V14.00,2013-03-02 12:39:00,
2013-03-02 06:44:00,9.3,2.7,30.41,SE,136,7.0,8.0,74,0.00,,,0.00,VWS V14.00,2013-03-02 12:44:00,
2013-03-02 06:49:00,8.9,2.3,30.41,SE,141,5.0,8.0,74,0.00,,,0.00,VWS V14.00,2013-03-02 12:49:00,
2013-03-02 06:54:00,8.5,2.2,30.41,SE,137,5.0,8.0,75,0.00,,,0.00,VWS V14.00,2013-03-02 12:54:00,
2013-03-02 06:59:00,8.7,2.4,30.41,SSE,150,1.0,8.0,75,0.00,,,0.00,VWS V14.00,2013-03-02 12:59:00,
2013-03-02 07:04:00,8.9,2.9,30.41,SE,144,0.0,2.0,76,0.00,,,0.00,VWS V14.00,2013-03-02 13:04:00,
2013-03-02 07:09:00,9.2,3.2,30.41,SE,145,2.0,3.0,76,0.00,,,0.00,VWS V14.00,2013-03-02 13:09:00,
2013-03-02 07:14:00,9.5,3.8,30.40,SE,145,2.0,3.0,77,0.00,,,0.00,VWS V14.00,2013-03-02 13:14:00,
2013-03-02 07:19:00,9.4,3.7,30.41,SE,146,2.0,4.0,77,0.00,,,0.00,VWS V14.00,2013-03-02 13:19:00,
2013-03-02 07:24:00,9.6,3.8,30.40,SSE,150,0.0,4.0,77,0.00,,,0.00,VWS V14.00,2013-03-02 13:24:00,
2013-03-02 07:29:00,10.1,4.6,30.40,SSE,149,1.0,4.0,78,0.00,,,0.00,VWS V14.00,2013-03-02 13:29:00,
2013-03-02 07:34:00,10.4,4.9,30.40,SSE,150,2.0,2.0,78,0.00,,,0.00,VWS V14.00,2013-03-02 13:34:00,
2013-03-02 07:39:00,10.9,5.7,30.40,SSE,147,3.0,4.0,79,0.00,,,0.00,VWS V14.00,2013-03-02 13:39:00,
2013-03-02 07:44:00,11.3,6.1,30.39,SSE,155,2.0,5.0,79,0.00,,,0.00,VWS V14.00,2013-03-02 13:44:00,
2013-03-02 07:49:00,11.9,6.1,30.39,SSE,150,0.0,5.0,77,0.00,,,0.00,VWS V14.00,2013-03-02 13:49:00,
2013-03-02 07:54:00,12.2,6.1,30.39,SE,144,2.0,5.0,76,0.00,,,0.00,VWS V14.00,2013-03-02 13:54:00,
2013-03-02 07:59:00,12.6,5.3,30.39,SE,146,3.0,5.0,72,0.00,,,0.00,VWS V14.00,2013-03-02 13:59:00,
2013-03-02 08:04:00,12.9,4.7,30.40,SSE,147,3.0,3.0,69,0.00,,,0.00,VWS V14.00,2013-03-02 14:04:00,
2013-03-02 08:08:00,13.1,4.2,30.40,SSE,155,1.0,3.0,67,0.00,,,0.00,VWS V14.00,2013-03-02 14:08:00,
2013-03-02 08:13:00,13.5,3.9,30.39,SSE,155,1.0,3.0,65,0.00,,,0.00,VWS V14.00,2013-03-02 14:13:00,
2013-03-02 08:18:00,13.8,3.5,30.39,SSE,159,1.0,3.0,63,0.00,,,0.00,VWS V14.00,2013-03-02 14:18:00,
2013-03-02 08:23:00,14.2,3.6,30.39,SSE,160,0.0,6.0,62,0.00,,,0.00,VWS V14.00,2013-03-02 14:23:00,
2013-03-02 08:28:00,14.5,3.2,30.39,SSE,150,0.0,6.0,60,0.00,,,0.00,VWS V14.00,2013-03-02 14:28:00,
2013-03-02 08:33:00,14.4,3.1,30.39,SSE,152,2.0,2.0,60,0.00,,,0.00,VWS V14.00,2013-03-02 14:33:00,
2013-03-02 08:38:00,14.3,3.0,30.39,SSE,156,3.0,7.0,60,0.00,,,0.00,VWS V14.00,2013-03-02 14:38:00,
2013-03-02 08:43:00,14.4,3.1,30.39,SSE,154,1.0,7.0,60,0.00,,,0.00,VWS V14.00,2013-03-02 14:43:00,
2013-03-02 08:48:00,14.7,3.3,30.39,SSE,154,1.0,7.0,60,0.00,,,0.00,VWS V14.00,2013-03-02 14:48:00,
2013-03-02 08:53:00,15.1,3.0,30.38,SSE,149,2.0,7.0,58,0.00,,,0.00,VWS V14.00,2013-03-02 14:53:00,
2013-03-02 08:58:00,15.4,3.3,30.37,North,360,0.0,7.0,58,0.00,,,0.00,VWS V14.00,2013-03-02 14:58:00,
2013-03-02 09:03:00,15.5,3.4,30.38,SE,145,1.0,2.0,58,0.00,,,0.00,VWS V14.00,2013-03-02 15:03:00,
2013-03-02 09:08:00,15.4,3.3,30.38,SSE,161,3.0,7.0,58,0.00,,,0.00,VWS V14.00,2013-03-02 15:08:00,
2013-03-02 09:13:00,15.4,3.7,30.38,SSE,150,0.0,7.0,59,0.00,,,0.00,VWS V14.00,2013-03-02 15:13:00,
2013-03-02 09:18:00,15.4,3.7,30.38,SSE,155,1.0,7.0,59,0.00,,,0.00,VWS V14.00,2013-03-02 15:18:00,
2013-03-02 09:23:00,15.5,3.7,30.38,SE,146,0.0,7.0,59,0.00,,,0.00,VWS V14.00,2013-03-02 15:23:00,
2013-03-02 09:28:00,15.9,4.1,30.38,SSE,153,0.0,10.0,59,0.00,,,0.00,VWS V14.00,2013-03-02 15:28:00,
2013-03-02 09:33:00,16.2,4.4,30.39,SSE,152,3.0,7.0,59,0.00,,,0.00,VWS V14.00,2013-03-02 15:33:00,
2013-03-02 09:38:00,16.6,4.4,30.39,North,350,0.0,9.0,58,0.00,,,0.00,VWS V14.00,2013-03-02 15:38:00,
2013-03-02 09:43:00,16.7,4.5,30.39,SE,145,3.0,9.0,58,0.00,,,0.00,VWS V14.00,2013-03-02 15:43:00,
2013-03-02 09:48:00,16.9,5.1,30.39,SSE,153,1.0,11.0,59,0.00,,,0.00,VWS V14.00,2013-03-02 15:48:00,
2013-03-02 09:53:00,17.1,5.6,30.38,SSE,151,1.0,11.0,60,0.00,,,0.00,VWS V14.00,2013-03-02 15:53:00,
2013-03-02 09:58:00,17.1,5.6,30.38,SSE,153,4.0,11.0,60,0.00,,,0.00,VWS V14.00,2013-03-02 15:58:00,
2013-03-02 10:03:00,17.2,5.7,30.38,East,91,0.0,2.0,60,0.00,,,0.00,VWS V14.00,2013-03-02 16:03:00,
2013-03-02 10:08:00,17.4,6.3,30.38,SSW,193,1.0,7.0,61,0.00,,,0.00,VWS V14.00,2013-03-02 16:08:00,
2013-03-02 10:13:00,17.5,6.4,30.38,SSE,149,3.0,7.0,61,0.00,,,0.00,VWS V14.00,2013-03-02 16:13:00,
2013-03-02 10:18:00,17.8,7.0,30.38,SSE,147,3.0,11.0,62,0.00,,,0.00,VWS V14.00,2013-03-02 16:18:00,
2013-03-02 10:23:00,17.9,6.7,30.39,SSE,151,4.0,11.0,61,0.00,,,0.00,VWS V14.00,2013-03-02 16:23:00,
2013-03-02 10:28:00,18.0,7.2,30.38,North,11,1.0,11.0,62,0.00,,,0.00,VWS V14.00,2013-03-02 16:28:00,
2013-03-02 10:33:00,18.1,7.3,30.37,SSE,150,2.0,3.0,62,0.00,,,0.00,VWS V14.00,2013-03-02 16:33:00,
2013-03-02 10:38:00,18.2,7.4,30.38,North,360,2.0,9.0,62,0.00,,,0.00,VWS V14.00,2013-03-02 16:38:00,
2013-03-02 10:43:00,18.4,7.9,30.37,NNE,14,0.0,11.0,63,0.00,,,0.00,VWS V14.00,2013-03-02 16:43:00,
2013-03-02 10:48:00,18.6,8.1,30.36,SSE,153,2.0,11.0,63,0.00,,,0.00,VWS V14.00,2013-03-02 16:48:00,
2013-03-02 10:53:00,18.7,8.2,30.36,SSE,155,1.0,11.0,63,0.00,,,0.00,VWS V14.00,2013-03-02 16:53:00,
2013-03-02 10:58:00,19.1,8.9,30.36,North,9,1.0,11.0,64,0.00,,,0.00,VWS V14.00,2013-03-02 16:58:00,
2013-03-02 11:03:00,19.3,8.8,30.35,NNW,346,0.0,1.0,63,0.00,,,0.00,VWS V14.00,2013-03-02 17:03:00,
2013-03-02 11:08:00,19.4,8.5,30.35,SSE,148,3.0,10.0,62,0.00,,,0.00,VWS V14.00,2013-03-02 17:08:00,
2013-03-02 11:13:00,19.7,8.8,30.36,SSE,154,3.0,12.0,62,0.00,,,0.00,VWS V14.00,2013-03-02 17:13:00,
2013-03-02 11:18:00,19.8,8.5,30.35,SSE,158,1.0,12.0,61,0.00,,,0.00,VWS V14.00,2013-03-02 17:18:00,
2013-03-02 11:23:00,19.7,8.4,30.35,SSE,151,3.0,12.0,61,0.00,,,0.00,VWS V14.00,2013-03-02 17:23:00,
2013-03-02 11:28:00,19.8,8.9,30.35,SE,142,2.0,12.0,62,0.00,,,0.00,VWS V14.00,2013-03-02 17:28:00,
2013-03-02 11:33:00,20.2,9.3,30.35,SSE,150,7.0,7.0,62,0.00,,,0.00,VWS V14.00,2013-03-02 17:33:00,
2013-03-02 11:38:00,20.2,8.9,30.34,SE,142,9.0,12.0,61,0.00,,,0.00,VWS V14.00,2013-03-02 17:38:00,
2013-03-02 11:43:00,20.3,9.0,30.34,SSE,155,1.0,12.0,61,0.00,,,0.00,VWS V14.00,2013-03-02 17:43:00,
2013-03-02 11:48:00,20.5,8.8,30.34,SSE,150,0.0,12.0,60,0.00,,,0.00,VWS V14.00,2013-03-02 17:48:00,
2013-03-02 11:53:00,20.8,8.8,30.34,SE,143,2.0,12.0,59,0.00,,,0.00,VWS V14.00,2013-03-02 17:53:00,
2013-03-02 11:58:00,20.9,6.9,30.34,SSE,159,2.0,12.0,54,0.00,,,0.00,VWS V14.00,2013-03-02 17:58:00,
2013-03-02 12:03:00,21.2,6.8,30.35,SSE,156,0.0,0.0,53,0.00,,,0.00,VWS V14.00,2013-03-02 18:03:00,
2013-03-02 12:08:00,21.3,5.1,30.35,SSE,161,0.0,13.0,49,0.00,,,0.00,VWS V14.00,2013-03-02 18:08:00,
2013-03-02 12:13:00,21.0,2.5,30.35,SE,136,1.0,13.0,44,0.00,,,0.00,VWS V14.00,2013-03-02 18:13:00,
2013-03-02 12:18:00,21.0,2.5,30.34,SSE,149,6.0,15.0,44,0.00,,,0.00,VWS V14.00,2013-03-02 18:18:00,
2013-03-02 12:23:00,20.9,2.9,30.34,SE,142,3.0,15.0,45,0.00,,,0.00,VWS V14.00,2013-03-02 18:23:00,
2013-03-02 12:28:00,20.7,3.2,30.33,NNE,22,1.0,15.0,46,0.00,,,0.00,VWS V14.00,2013-03-02 18:28:00,
2013-03-02 12:33:00,20.7,3.2,30.33,SE,140,0.0,0.0,46,0.00,,,0.00,VWS V14.00,2013-03-02 18:33:00,
2013-03-02 12:38:00,21.0,4.8,30.33,SSE,160,0.0,7.0,49,0.00,,,0.00,VWS V14.00,2013-03-02 18:38:00,
2013-03-02 12:43:00,20.9,6.1,30.33,SSE,153,0.0,7.0,52,0.00,,,0.00,VWS V14.00,2013-03-02 18:43:00,
2013-03-02 12:48:00,21.1,5.8,30.32,SSE,148,2.0,7.0,51,0.00,,,0.00,VWS V14.00,2013-03-02 18:48:00,
2013-03-02 12:53:00,21.2,4.6,30.32,ESE,117,0.0,7.0,48,0.00,,,0.00,VWS V14.00,2013-03-02 18:53:00,
2013-03-02 12:58:00,21.3,3.3,30.31,SSE,163,2.0,9.0,45,0.00,,,0.00,VWS V14.00,2013-03-02 18:58:00,
2013-03-02 13:03:00,21.3,3.8,30.31,SE,138,9.0,12.0,46,0.00,,,0.00,VWS V14.00,2013-03-02 19:03:00,
2013-03-02 13:08:00,21.4,4.3,30.32,SE,134,0.0,13.0,47,0.00,,,0.00,VWS V14.00,2013-03-02 19:08:00,
2013-03-02 13:13:00,21.5,4.9,30.32,SSE,149,2.0,13.0,48,0.00,,,0.00,VWS V14.00,2013-03-02 19:13:00,
2013-03-02 13:18:00,21.7,5.1,30.32,SSE,157,6.0,13.0,48,0.00,,,0.00,VWS V14.00,2013-03-02 19:18:00,
2013-03-02 13:23:00,21.8,4.7,30.31,SE,138,7.0,13.0,47,0.00,,,0.00,VWS V14.00,2013-03-02 19:23:00,
2013-03-02 13:28:00,22.0,6.2,30.31,SSE,165,1.0,13.0,50,0.00,,,0.00,VWS V14.00,2013-03-02 19:28:00,
2013-03-02 13:33:00,21.9,5.7,30.31,ESE,113,1.0,13.0,49,0.00,,,0.00,VWS V14.00,2013-03-02 19:33:00,
2013-03-02 13:38:00,21.9,5.7,30.30,SSE,149,10.0,11.0,49,0.00,,,0.00,VWS V14.00,2013-03-02 19:38:00,
2013-03-02 13:43:00,22.0,6.2,30.31,SSE,152,0.0,12.0,50,0.00,,,0.00,VWS V14.00,2013-03-02 19:43:00,
2013-03-02 13:48:00,22.2,6.8,30.31,SE,145,9.0,14.0,51,0.00,,,0.00,VWS V14.00,2013-03-02 19:48:00,
2013-03-02 13:53:00,22.4,6.6,30.30,SSE,153,1.0,14.0,50,0.00,,,0.00,VWS V14.00,2013-03-02 19:53:00,
2013-03-02 13:58:00,22.4,6.2,30.30,SSE,155,0.0,14.0,49,0.00,,,0.00,VWS V14.00,2013-03-02 19:58:00,
2013-03-02 14:03:00,22.4,6.2,30.30,SSE,148,1.0,14.0,49,0.00,,,0.00,VWS V14.00,2013-03-02 20:03:00,
2013-03-02 14:08:00,22.4,5.7,30.29,SE,145,9.0,14.0,48,0.00,,,0.00,VWS V14.00,2013-03-02 20:08:00,
2013-03-02 14:13:00,22.4,5.7,30.28,SSE,150,4.0,14.0,48,0.00,,,0.00,VWS V14.00,2013-03-02 20:13:00,
2013-03-02 14:18:00,22.4,5.7,30.28,NNW,341,1.0,14.0,48,0.00,,,0.00,VWS V14.00,2013-03-02 20:18:00,
2013-03-02 14:23:00,22.4,6.2,30.28,SSE,148,2.0,14.0,49,0.00,,,0.00,VWS V14.00,2013-03-02 20:23:00,
2013-03-02 14:28:00,22.7,7.3,30.28,SSE,154,0.0,14.0,51,0.00,,,0.00,VWS V14.00,2013-03-02 20:28:00,
2013-03-02 14:33:00,22.8,7.4,30.27,SSE,163,0.0,14.0,51,0.00,,,0.00,VWS V14.00,2013-03-02 20:33:00,
2013-03-02 14:38:00,22.9,6.6,30.27,SSE,154,1.0,14.0,49,0.00,,,0.00,VWS V14.00,2013-03-02 20:38:00,
2013-03-02 14:43:00,22.8,6.1,30.27,NNE,26,0.0,14.0,48,0.00,,,0.00,VWS V14.00,2013-03-02 20:43:00,
2013-03-02 14:48:00,22.8,7.0,30.27,SSE,154,6.0,14.0,50,0.00,,,0.00,VWS V14.00,2013-03-02 20:48:00,
2013-03-02 14:52:00,22.8,7.0,30.27,SSE,155,2.0,14.0,50,0.00,,,0.00,VWS V14.00,2013-03-02 20:52:00,
2013-03-02 14:57:00,22.8,7.4,30.27,SSE,150,9.0,14.0,51,0.00,,,0.00,VWS V14.00,2013-03-02 20:57:00,
2013-03-02 15:02:00,22.8,7.4,30.27,North,5,2.0,14.0,51,0.00,,,0.00,VWS V14.00,2013-03-02 21:02:00,
2013-03-02 15:07:00,22.7,7.3,30.27,SSE,156,3.0,14.0,51,0.00,,,0.00,VWS V14.00,2013-03-02 21:07:00,
2013-03-02 15:12:00,22.9,8.8,30.27,SSE,148,5.0,14.0,54,0.00,,,0.00,VWS V14.00,2013-03-02 21:12:00,
2013-03-02 15:17:00,23.0,8.9,30.27,SSE,152,3.0,14.0,54,0.00,,,0.00,VWS V14.00,2013-03-02 21:17:00,
2013-03-02 15:22:00,22.9,10.3,30.26,North,5,1.0,14.0,58,0.00,,,0.00,VWS V14.00,2013-03-02 21:22:00,
2013-03-02 15:27:00,23.0,8.9,30.26,SSE,157,6.0,14.0,54,0.00,,,0.00,VWS V14.00,2013-03-02 21:27:00,
2013-03-02 15:32:00,22.9,9.2,30.26,SSE,151,2.0,14.0,55,0.00,,,0.00,VWS V14.00,2013-03-02 21:32:00,
2013-03-02 15:37:00,23.0,9.7,30.26,SSE,151,3.0,6.0,56,0.00,,,0.00,VWS V14.00,2013-03-02 21:37:00,
2013-03-02 15:42:00,23.1,10.5,30.26,SSE,152,2.0,6.0,58,0.00,,,0.00,VWS V14.00,2013-03-02 21:42:00,
2013-03-02 15:47:00,23.1,10.5,30.26,SE,142,11.0,11.0,58,0.00,,,0.00,VWS V14.00,2013-03-02 21:47:00,
2013-03-02 15:52:00,23.1,10.5,30.27,SSE,148,1.0,11.0,58,0.00,,,0.00,VWS V14.00,2013-03-02 21:52:00,
2013-03-02 15:57:00,23.1,11.3,30.26,SSE,153,2.0,11.0,60,0.00,,,0.00,VWS V14.00,2013-03-02 21:57:00,
2013-03-02 16:02:00,23.1,10.5,30.26,ENE,63,2.0,11.0,58,0.00,,,0.00,VWS V14.00,2013-03-02 22:02:00,
2013-03-02 16:07:00,23.1,10.5,30.27,SSE,153,4.0,11.0,58,0.00,,,0.00,VWS V14.00,2013-03-02 22:07:00,
2013-03-02 16:12:00,23.1,9.8,30.27,SSE,156,0.0,11.0,56,0.00,,,0.00,VWS V14.00,2013-03-02 22:12:00,
2013-03-02 16:17:00,23.2,10.6,30.26,SE,129,0.0,11.0,58,0.00,,,0.00,VWS V14.00,2013-03-02 22:17:00,
2013-03-02 16:22:00,23.2,10.2,30.27,SSE,157,3.0,11.0,57,0.00,,,0.00,VWS V14.00,2013-03-02 22:22:00,
2013-03-02 16:27:00,23.2,10.2,30.26,SSE,152,1.0,11.0,57,0.00,,,0.00,VWS V14.00,2013-03-02 22:27:00,
2013-03-02 16:32:00,23.3,10.7,30.26,SSE,154,2.0,11.0,58,0.00,,,0.00,VWS V14.00,2013-03-02 22:32:00,
2013-03-02 16:37:00,23.1,9.8,30.26,SSE,148,3.0,13.0,56,0.00,,,0.00,VWS V14.00,2013-03-02 22:37:00,
2013-03-02 16:42:00,23.1,10.1,30.26,SSE,150,0.0,13.0,57,0.00,,,0.00,VWS V14.00,2013-03-02 22:42:00,
2013-03-02 16:47:00,23.1,9.8,30.26,SE,126,0.0,13.0,56,0.00,,,0.00,VWS V14.00,2013-03-02 22:47:00,
2013-03-02 16:52:00,23.1,9.8,30.25,SSE,153,0.0,13.0,56,0.00,,,0.00,VWS V14.00,2013-03-02 22:52:00,
2013-03-02 16:57:00,23.1,10.1,30.25,SSE,149,3.0,13.0,57,0.00,,,0.00,VWS V14.00,2013-03-02 22:57:00,
2013-03-02 17:02:00,23.0,10.1,30.25,SE,137,6.0,13.0,57,0.00,,,0.00,VWS V14.00,2013-03-02 23:02:00,
2013-03-02 17:07:00,23.1,10.5,30.26,SSE,155,5.0,7.0,58,0.00,,,0.00,VWS V14.00,2013-03-02 23:07:00,
2013-03-02 17:12:00,23.1,11.3,30.26,SSE,153,1.0,8.0,60,0.00,,,0.00,VWS V14.00,2013-03-02 23:12:00,
2013-03-02 17:17:00,23.1,12.4,30.26,SSE,153,1.0,9.0,63,0.00,,,0.00,VWS V14.00,2013-03-02 23:17:00,
2013-03-02 17:22:00,23.0,13.4,30.26,SE,134,6.0,10.0,66,0.00,,,0.00,VWS V14.00,2013-03-02 23:22:00,
2013-03-02 17:27:00,22.7,13.4,30.26,SE,137,8.0,12.0,67,0.00,,,0.00,VWS V14.00,2013-03-02 23:27:00,
2013-03-02 17:32:00,22.6,13.6,30.26,SE,135,9.0,12.0,68,0.00,,,0.00,VWS V14.00,2013-03-02 23:32:00,
2013-03-02 17:37:00,22.5,13.9,30.26,SE,128,10.0,13.0,69,0.00,,,0.00,VWS V14.00,2013-03-02 23:37:00,
2013-03-02 17:42:00,22.5,13.9,30.26,SE,138,11.0,13.0,69,0.00,,,0.00,VWS V14.00,2013-03-02 23:42:00,
2013-03-02 17:47:00,22.4,14.1,30.26,SE,138,10.0,13.0,70,0.00,,,0.00,VWS V14.00,2013-03-02 23:47:00,
2013-03-02 17:52:00,22.3,14.0,30.25,SE,128,12.0,13.0,70,0.00,,,0.00,VWS V14.00,2013-03-02 23:52:00,
2013-03-02 17:57:00,22.2,14.2,30.25,SE,125,10.0,14.0,71,0.00,,,0.00,VWS V14.00,2013-03-02 23:57:00,
2013-03-02 18:02:00,22.2,14.2,30.25,SE,130,13.0,15.0,71,0.00,,,0.00,VWS V14.00,2013-03-03 00:02:00,
2013-03-02 18:07:00,22.0,14.1,30.25,SE,139,11.0,16.0,71,0.00,,,0.00,VWS V14.00,2013-03-03 00:07:00,
2013-03-02 18:12:00,21.8,13.9,30.25,SE,137,13.0,16.0,71,0.00,,,0.00,VWS V14.00,2013-03-03 00:12:00,
2013-03-02 18:17:00,21.7,13.8,30.25,SE,128,13.0,16.0,71,0.00,,,0.00,VWS V14.00,2013-03-03 00:17:00,
2013-03-02 18:22:00,21.6,13.3,30.25,SE,124,12.0,16.0,70,0.00,,,0.00,VWS V14.00,2013-03-03 00:22:00,
2013-03-02 18:27:00,21.5,13.2,30.26,ESE,114,12.0,17.0,70,0.00,,,0.00,VWS V14.00,2013-03-03 00:27:00,
2013-03-02 18:32:00,21.5,12.9,30.26,ESE,116,11.0,17.0,69,0.00,,,0.00,VWS V14.00,2013-03-03 00:32:00,
2013-03-02 18:37:00,21.5,12.6,30.26,SE,132,12.0,14.0,68,0.00,,,0.00,VWS V14.00,2013-03-03 00:37:00,
2013-03-02 18:42:00,21.5,12.9,30.26,ESE,106,4.0,14.0,69,0.00,,,0.00,VWS V14.00,2013-03-03 00:42:00,
2013-03-02 18:47:00,21.4,13.1,30.26,ESE,113,6.0,14.0,70,0.00,,,0.00,VWS V14.00,2013-03-03 00:47:00,
2013-03-02 18:52:00,21.3,12.7,30.26,SE,134,10.0,15.0,69,0.00,,,0.00,VWS V14.00,2013-03-03 00:52:00,
2013-03-02 18:57:00,21.3,12.4,30.27,ESE,118,8.0,15.0,68,0.00,,,0.00,VWS V14.00,2013-03-03 00:57:00,
2013-03-02 19:02:00,21.3,12.4,30.27,ESE,110,12.0,15.0,68,0.00,,,0.00,VWS V14.00,2013-03-03 01:02:00,
2013-03-02 19:07:00,21.3,12.4,30.26,ESE,122,7.0,13.0,68,0.00,,,0.00,VWS V14.00,2013-03-03 01:07:00,
2013-03-02 19:12:00,21.3,12.4,30.26,ESE,105,7.0,14.0,68,0.00,,,0.00,VWS V14.00,2013-03-03 01:12:00,
2013-03-02 19:17:00,21.2,12.3,30.26,SE,130,10.0,14.0,68,0.00,,,0.00,VWS V14.00,2013-03-03 01:17:00,
2013-03-02 19:22:00,21.2,12.3,30.26,ESE,115,11.0,14.0,68,0.00,,,0.00,VWS V14.00,2013-03-03 01:22:00,
2013-03-02 19:27:00,21.2,12.3,30.26,SE,132,9.0,15.0,68,0.00,,,0.00,VWS V14.00,2013-03-03 01:27:00,
2013-03-02 19:32:00,21.2,12.0,30.25,SE,136,9.0,16.0,67,0.00,,,0.00,VWS V14.00,2013-03-03 01:32:00,
2013-03-02 19:37:00,21.2,12.0,30.25,ESE,119,12.0,14.0,67,0.00,,,0.00,VWS V14.00,2013-03-03 01:37:00,
2013-03-02 19:42:00,21.2,12.0,30.25,SE,139,5.0,15.0,67,0.00,,,0.00,VWS V14.00,2013-03-03 01:42:00,
2013-03-02 19:47:00,21.2,11.3,30.25,SE,138,9.0,15.0,65,0.00,,,0.00,VWS V14.00,2013-03-03 01:47:00,
2013-03-02 19:52:00,21.2,11.3,30.25,SE,141,12.0,17.0,65,0.00,,,0.00,VWS V14.00,2013-03-03 01:52:00,
2013-03-02 19:57:00,21.1,11.5,30.25,SSE,155,7.0,17.0,66,0.00,,,0.00,VWS V14.00,2013-03-03 01:57:00,
2013-03-02 20:02:00,21.1,11.2,30.24,SSE,150,1.0,17.0,65,0.00,,,0.00,VWS V14.00,2013-03-03 02:02:00,
2013-03-02 20:07:00,21.1,11.2,30.24,SSE,154,1.0,12.0,65,0.00,,,0.00,VWS V14.00,2013-03-03 02:07:00,
2013-03-02 20:12:00,21.1,11.2,30.24,SSE,152,6.0,12.0,65,0.00,,,0.00,VWS V14.00,2013-03-03 02:12:00,
2013-03-02 20:17:00,21.1,10.8,30.24,SE,146,3.0,12.0,64,0.00,,,0.00,VWS V14.00,2013-03-03 02:17:00,
2013-03-02 20:22:00,21.1,10.8,30.24,SSE,153,2.0,14.0,64,0.00,,,0.00,VWS V14.00,2013-03-03 02:22:00,
2013-03-02 20:27:00,21.1,10.5,30.24,SE,136,15.0,15.0,63,0.00,,,0.00,VWS V14.00,2013-03-03 02:27:00,
2013-03-02 20:32:00,21.0,10.4,30.24,SE,140,11.0,15.0,63,0.00,,,0.00,VWS V14.00,2013-03-03 02:32:00,
2013-03-02 20:37:00,21.0,10.4,30.23,SE,125,6.0,15.0,63,0.00,,,0.00,VWS V14.00,2013-03-03 02:37:00,
2013-03-02 20:42:00,21.0,10.0,30.23,SE,144,9.0,17.0,62,0.00,,,0.00,VWS V14.00,2013-03-03 02:42:00,
2013-03-02 20:47:00,20.9,10.3,30.23,SE,140,9.0,17.0,63,0.00,,,0.00,VWS V14.00,2013-03-03 02:47:00,
2013-03-02 20:52:00,20.9,10.6,30.22,SE,126,11.0,17.0,64,0.00,,,0.00,VWS V14.00,2013-03-03 02:52:00,
2013-03-02 20:57:00,20.9,10.3,30.23,SE,144,10.0,17.0,63,0.00,,,0.00,VWS V14.00,2013-03-03 02:57:00,
2013-03-02 21:02:00,20.9,10.6,30.23,SE,136,13.0,17.0,64,0.00,,,0.00,VWS V14.00,2013-03-03 03:02:00,
2013-03-02 21:07:00,20.9,10.6,30.23,SSE,148,12.0,15.0,64,0.00,,,0.00,VWS V14.00,2013-03-03 03:07:00,
2013-03-02 21:12:00,20.9,11.0,30.22,SE,146,10.0,15.0,65,0.00,,,0.00,VWS V14.00,2013-03-03 03:12:00,
2013-03-02 21:17:00,20.9,11.0,30.22,SE,132,11.0,15.0,65,0.00,,,0.00,VWS V14.00,2013-03-03 03:17:00,
2013-03-02 21:22:00,20.9,11.0,30.22,SE,127,14.0,17.0,65,0.00,,,0.00,VWS V14.00,2013-03-03 03:22:00,
2013-03-02 21:27:00,20.9,11.3,30.22,SE,133,12.0,17.0,66,0.00,,,0.00,VWS V14.00,2013-03-03 03:27:00,
2013-03-02 21:32:00,20.8,11.2,30.21,ESE,121,14.0,17.0,66,0.00,,,0.00,VWS V14.00,2013-03-03 03:32:00,
2013-03-02 21:37:00,20.8,11.2,30.21,SE,130,15.0,18.0,66,0.00,,,0.00,VWS V14.00,2013-03-03 03:37:00,
2013-03-02 21:42:00,20.8,11.6,30.21,SE,140,15.0,18.0,67,0.00,,,0.00,VWS V14.00,2013-03-03 03:42:00,
2013-03-02 21:47:00,20.8,11.9,30.21,ESE,119,16.0,18.0,68,0.00,,,0.00,VWS V14.00,2013-03-03 03:47:00,
2013-03-02 21:52:00,20.9,12.0,30.22,SE,142,9.0,18.0,68,0.00,,,0.00,VWS V14.00,2013-03-03 03:52:00,
2013-03-02 21:57:00,20.9,12.4,30.21,SE,146,9.0,18.0,69,0.00,,,0.00,VWS V14.00,2013-03-03 03:57:00,
2013-03-02 22:02:00,20.8,12.2,30.21,SE,140,9.0,18.0,69,0.00,,,0.00,VWS V14.00,2013-03-03 04:02:00,
2013-03-02 22:07:00,20.8,12.6,30.21,SE,140,15.0,16.0,70,0.00,,,0.00,VWS V14.00,2013-03-03 04:07:00,
2013-03-02 22:11:00,20.8,12.6,30.21,SE,134,12.0,16.0,70,0.00,,,0.00,VWS V14.00,2013-03-03 04:11:00,
2013-03-02 22:16:00,20.8,12.9,30.21,SE,142,7.0,16.0,71,0.00,,,0.00,VWS V14.00,2013-03-03 04:16:00,
2013-03-02 22:21:00,20.7,12.8,30.21,SSE,153,5.0,16.0,71,0.00,,,0.00,VWS V14.00,2013-03-03 04:21:00,
2013-03-02 22:26:00,20.7,12.8,30.20,SE,138,9.0,16.0,71,0.00,,,0.00,VWS V14.00,2013-03-03 04:26:00,
2013-03-02 22:31:00,20.7,12.8,30.20,SE,134,11.0,16.0,71,0.00,,,0.00,VWS V14.00,2013-03-03 04:31:00,
2013-03-02 22:36:00,20.7,13.1,30.20,SE,141,7.0,12.0,72,0.00,,,0.00,VWS V14.00,2013-03-03 04:36:00,
2013-03-02 22:41:00,20.7,13.1,30.20,SE,141,12.0,15.0,72,0.00,,,0.00,VWS V14.00,2013-03-03 04:41:00,
2013-03-02 22:46:00,20.7,12.8,30.19,SSE,156,10.0,15.0,71,0.00,,,0.00,VWS V14.00,2013-03-03 04:46:00,
2013-03-02 22:51:00,20.7,13.1,30.19,SSE,153,11.0,16.0,72,0.00,,,0.00,VWS V14.00,2013-03-03 04:51:00,
2013-03-02 22:56:00,20.7,12.8,30.19,SE,133,11.0,16.0,71,0.00,,,0.00,VWS V14.00,2013-03-03 04:56:00,
2013-03-02 23:00:00,20.6,13.0,30.19,SSE,148,15.0,16.0,72,0.00,,,0.00,VWS V14.00,2013-03-03 05:00:00,
2013-03-02 23:05:00,20.6,13.0,30.19,SE,142,12.0,14.0,72,0.00,,,0.00,VWS V14.00,2013-03-03 05:05:00,
2013-03-02 23:10:00,20.6,13.0,30.18,SE,137,8.0,15.0,72,0.00,,,0.00,VWS V14.00,2013-03-03 05:10:00,
2013-03-02 23:15:00,20.6,12.7,30.18,SE,133,7.0,15.0,71,0.00,,,0.00,VWS V14.00,2013-03-03 05:15:00,
2013-03-02 23:20:00,20.5,12.9,30.18,SE,140,12.0,15.0,72,0.00,,,0.00,VWS V14.00,2013-03-03 05:20:00,
2013-03-02 23:25:00,20.4,12.5,30.18,SE,144,6.0,15.0,71,0.00,,,0.00,VWS V14.00,2013-03-03 05:25:00,
2013-03-02 23:30:00,20.4,12.8,30.18,SSE,147,4.0,15.0,72,0.00,,,0.00,VWS V14.00,2013-03-03 05:30:00,
2013-03-02 23:35:00,20.4,12.5,30.18,SE,142,6.0,13.0,71,0.00,,,0.00,VWS V14.00,2013-03-03 05:35:00,
2013-03-02 23:40:00,20.3,12.4,30.17,SE,144,3.0,13.0,71,0.00,,,0.00,VWS V14.00,2013-03-03 05:40:00,
2013-03-02 23:45:00,20.2,12.3,30.17,SSE,148,8.0,13.0,71,0.00,,,0.00,VWS V14.00,2013-03-03 05:45:00,
2013-03-02 23:50:00,20.1,12.5,30.17,SSE,153,6.0,13.0,72,0.00,,,0.00,VWS V14.00,2013-03-03 05:50:00,
2013-03-02 23:55:00,20.2,12.6,30.17,SE,136,10.0,13.0,72,0.00,,,0.00,VWS V14.00,2013-03-03 05:55:00,